Time;durP1;ratioP1;P1;durP2;ratioP2;P2;SDS_P1;SDS_P2;PMS_P1;PMS_P2;Temp;Humidity;BMP_temperature;BMP_pressure;BME280_temperature;BME280_humidity;BME280_pressure;Samples;Min_cycle;Max_cycle;Signal;HPM_P1;HPM_P2
2023/05/28 00:01:07;;;;;;;;;;;;;;;12.93;80.07;99462.28;4255823;33;34546;-95
2023/05/28 00:03:42;;;;;;;;;;;;;;;12.76;80.80;99453.88;4269722;33;35861;-95
2023/05/28 00:06:14;;;;;;;;;;;;;;;12.77;79.23;99461.72;4281080;33;34363;-95
2023/05/28 00:08:45;;;;;;;;;;;;;;;13.28;77.56;99448.53;4280203;33;32961;-96
2023/05/28 00:11:25;;;;;;;;;;;;;;;13.16;77.04;99447.94;4274942;27;33806;-95
2023/05/28 00:14:03;;;;;;;;;;;;;;;12.97;78.02;99453.53;4298071;27;33733;-95
2023/05/28 00:16:51;;;;;;;;;;;;;;;12.76;78.30;99448.66;4299855;27;35260;-94
2023/05/28 00:19:26;;;;;;;;;;;;;;;12.59;79.87;99449.84;4269101;33;33192;-95
2023/05/28 00:22:02;;;;;;;;;;;;;;;13.05;78.37;99454.22;4282826;33;33040;-95
2023/05/28 00:24:39;;;;;;;;;;;;;;;12.73;77.22;99443.53;4277774;33;36086;-96
2023/05/28 00:27:18;;;;;;;;;;;;;;;12.94;77.04;99450.97;4279774;33;34527;-94
2023/05/28 00:29:47;;;;;;;;;;;;;;;12.83;78.27;99447.66;4291771;33;32988;-94
2023/05/28 00:32:19;;;;;;;;;;;;;;;12.59;76.94;99452.44;4293908;33;35467;-95
2023/05/28 00:34:55;;;;;;;;;;;;;;;12.93;76.67;99445.75;4290117;28;35263;-95
2023/05/28 00:37:39;;;;;;;;;;;;;;;13.29;73.80;99438.97;4316200;27;34804;-95
2023/05/28 00:40:11;;;;;;;;;;;;;;;12.43;78.01;99440.53;4289113;33;33831;-95
2023/05/28 00:42:41;;;;;;;;;;;;;;;12.46;76.19;99446.56;4293500;33;33890;-95
2023/05/28 00:45:19;;;;;;;;;;;;;;;12.46;77.45;99443.13;4279988;33;35393;-95
2023/05/28 00:47:55;;;;;;;;;;;;;;;12.90;74.23;99438.84;4284942;33;33449;-95
2023/05/28 00:50:30;;;;;;;;;;;;;;;12.12;76.83;99431.47;4298522;27;33294;-95
2023/05/28 00:53:09;;;;;;;;;;;;;;;12.73;74.28;99430.44;4281521;33;34639;-96
2023/05/28 00:55:44;;;;;;;;;;;;;;;12.44;75.56;99426.56;4295043;33;34980;-95
2023/05/28 00:58:35;;;;;;;;;;;;;;;12.90;72.34;99424.03;4292140;33;34299;-95
2023/05/28 01:01:06;;;;;;;;;;;;;;;11.93;76.39;99430.88;4305868;27;33629;-95
2023/05/28 01:03:43;;;;;;;;;;;;;;;12.79;73.47;99419.88;4283699;33;34256;-94
2023/05/28 01:06:17;;;;;;;;;;;;;;;12.38;73.84;99419.72;4281931;28;35660;-95
2023/05/28 01:09:14;;;;;;;;;;;;;;;12.35;75.23;99424.13;4296449;33;35063;-94
2023/05/28 01:11:45;;;;;;;;;;;;;;;12.54;74.07;99416.84;4288829;27;33923;-94
2023/05/28 01:14:20;;;;;;;;;;;;;;;11.53;81.37;99410.53;4289437;28;34631;-95
2023/05/28 01:17:16;;;;;;;;;;;;;;;12.11;77.85;99410.59;4305928;33;35460;-95
2023/05/28 01:19:50;;;;;;;;;;;;;;;12.31;76.62;99416.34;4298543;33;34253;-94
2023/05/28 01:22:50;;;;;;;;;;;;;;;11.84;77.74;99412.72;4292241;27;34112;-95
2023/05/28 01:25:39;;;;;;;;;;;;;;;11.89;78.84;99407.41;4282193;33;32562;-94
2023/05/28 01:28:45;;;;;;;;;;;;;;;11.86;78.13;99405.72;4268534;33;36286;-95
2023/05/28 01:31:37;;;;;;;;;;;;;;;11.46;81.30;99401.06;4271720;33;34711;-93
2023/05/28 01:34:48;;;;;;;;;;;;;;;11.68;79.16;99398.16;4283108;33;33488;-94
2023/05/28 01:37:37;;;;;;;;;;;;;;;11.35;81.26;99396.00;4297748;27;34035;-95
2023/05/28 01:40:17;;;;;;;;;;;;;;;11.37;82.09;99396.81;4277921;27;34257;-95
2023/05/28 01:43:05;;;;;;;;;;;;;;;11.76;80.01;99401.53;4274574;33;32031;-95
2023/05/28 01:45:50;;;;;;;;;;;;;;;11.44;80.67;99401.97;4302450;27;33708;-95
2023/05/28 01:48:40;;;;;;;;;;;;;;;11.33;82.29;99399.47;4272584;33;34210;-95
2023/05/28 01:51:32;;;;;;;;;;;;;;;12.01;78.59;99395.97;4291326;33;35917;-95
2023/05/28 01:54:05;;;;;;;;;;;;;;;11.53;78.89;99397.50;4282311;33;34671;-95
2023/05/28 01:56:40;;;;;;;;;;;;;;;11.45;79.46;99391.50;4281173;33;33001;-95
2023/05/28 01:59:09;;;;;;;;;;;;;;;11.46;79.49;99393.25;4290285;33;33343;-95
2023/05/28 02:01:41;;;;;;;;;;;;;;;11.88;77.98;99398.72;4295859;33;35283;-95
2023/05/28 02:04:10;;;;;;;;;;;;;;;11.63;78.43;99399.97;4299736;27;35481;-95
2023/05/28 02:06:47;;;;;;;;;;;;;;;11.84;76.23;99393.56;4289734;33;31786;-94
2023/05/28 02:09:37;;;;;;;;;;;;;;;11.70;78.56;99391.16;4303774;27;34593;-94
2023/05/28 02:12:39;;;;;;;;;;;;;;;11.79;76.81;99385.84;4284164;33;34874;-95
2023/05/28 02:15:29;;;;;;;;;;;;;;;12.05;76.60;99389.81;4305274;33;34852;-95
2023/05/28 02:18:19;;;;;;;;;;;;;;;11.74;76.62;99392.88;4300810;27;33876;-95
2023/05/28 02:20:48;;;;;;;;;;;;;;;11.92;75.88;99391.75;4279709;33;34499;-95
2023/05/28 02:23:21;;;;;;;;;;;;;;;11.57;76.88;99390.47;4282381;33;36096;-95
2023/05/28 02:25:58;;;;;;;;;;;;;;;11.42;78.70;99393.28;4298277;33;34758;-96
2023/05/28 02:28:35;;;;;;;;;;;;;;;11.48;78.66;99391.47;4298632;27;33770;-94
2023/05/28 02:31:05;;;;;;;;;;;;;;;11.56;79.11;99388.78;4285333;33;33429;-95
2023/05/28 02:33:39;;;;;;;;;;;;;;;11.56;78.74;99389.63;4296921;33;35239;-95
2023/05/28 02:36:11;;;;;;;;;;;;;;;11.17;80.42;99391.00;4295680;33;34346;-94
2023/05/28 02:38:42;;;;;;;;;;;;;;;11.06;81.11;99392.88;4281609;33;33711;-95
2023/05/28 02:41:11;;;;;;;;;;;;;;;11.15;80.21;99388.44;4304466;33;33595;-94
2023/05/28 02:43:43;;;;;;;;;;;;;;;11.29;79.59;99390.00;4295297;33;34933;-95
2023/05/28 02:46:12;;;;;;;;;;;;;;;11.55;78.42;99390.50;4299643;27;35332;-95
2023/05/28 02:49:03;;;;;;;;;;;;;;;11.46;77.82;99392.38;4281503;33;32693;-94
2023/05/28 02:52:11;;;;;;;;;;;;;;;11.66;77.52;99382.50;4283959;33;34133;-95
2023/05/28 02:54:48;;;;;;;;;;;;;;;11.45;78.39;99386.28;4307166;27;34803;-94
2023/05/28 02:57:18;;;;;;;;;;;;;;;11.08;79.46;99384.19;4284286;33;34441;-94
2023/05/28 03:00:11;;;;;;;;;;;;;;;11.05;80.68;99389.41;4288557;33;33605;-95
2023/05/28 03:02:55;;;;;;;;;;;;;;;11.08;80.04;99386.78;4291611;27;34023;-95
2023/05/28 03:05:37;;;;;;;;;;;;;;;11.49;78.13;99392.34;4275218;33;36214;-96
2023/05/28 03:08:05;;;;;;;;;;;;;;;11.36;78.15;99386.41;4309364;27;33758;-94
2023/05/28 03:10:54;;;;;;;;;;;;;;;11.32;78.46;99384.75;4298691;33;33643;-94
2023/05/28 03:13:22;;;;;;;;;;;;;;;11.05;79.06;99386.81;4308803;27;34093;-95
2023/05/28 03:15:58;;;;;;;;;;;;;;;11.50;77.78;99387.09;4280981;33;35649;-95
2023/05/28 03:18:33;;;;;;;;;;;;;;;10.99;80.26;99385.16;4290878;27;33716;-94
2023/05/28 03:21:04;;;;;;;;;;;;;;;10.83;82.52;99380.97;4297075;33;33283;-95
2023/05/28 03:23:39;;;;;;;;;;;;;;;11.10;81.60;99373.72;4312568;33;35003;-95
2023/05/28 03:26:08;;;;;;;;;;;;;;;11.47;81.22;99378.44;4311711;33;35138;-94
2023/05/28 03:28:38;;;;;;;;;;;;;;;11.48;80.65;99383.66;4300010;33;35680;-94
2023/05/28 03:31:21;;;;;;;;;;;;;;;11.33;81.09;99381.22;4304929;28;32580;-94
2023/05/28 03:33:53;;;;;;;;;;;;;;;11.71;80.32;99387.69;4294917;33;35190;-95
2023/05/28 03:36:43;;;;;;;;;;;;;;;11.48;81.89;99388.88;4300333;27;34428;-95
2023/05/28 03:39:16;;;;;;;;;;;;;;;11.50;82.24;99381.88;4285881;33;35427;-95
2023/05/28 03:41:51;;;;;;;;;;;;;;;11.37;83.79;99388.16;4291031;33;33588;-94
2023/05/28 03:44:22;;;;;;;;;;;;;;;11.79;82.50;99385.84;4273925;33;34214;-95
2023/05/28 03:47:00;;;;;;;;;;;;;;;11.86;82.97;99384.84;4290054;28;34017;-94
2023/05/28 03:49:29;;;;;;;;;;;;;;;11.69;84.64;99384.25;4272720;33;33536;-96
2023/05/28 03:52:09;;;;;;;;;;;;;;;11.57;85.00;99383.50;4298287;27;33999;-94
2023/05/28 03:54:45;;;;;;;;;;;;;;;11.82;85.20;99383.16;4300449;27;33809;-94
2023/05/28 03:57:32;;;;;;;;;;;;;;;11.91;86.60;99384.78;4303990;27;36248;-94
2023/05/28 04:00:00;;;;;;;;;;;;;;;12.20;83.87;99386.94;4279489;33;34349;-95
2023/05/28 04:02:31;;;;;;;;;;;;;;;12.17;85.40;99392.22;4328940;27;33248;-94
2023/05/28 04:05:00;;;;;;;;;;;;;;;12.50;84.10;99389.94;4271594;33;32696;-94
2023/05/28 04:08:03;;;;;;;;;;;;;;;12.64;84.53;99392.28;4281966;33;36420;-94
2023/05/28 04:10:33;;;;;;;;;;;;;;;12.83;83.82;99387.56;4292562;33;34854;-95
2023/05/28 04:13:07;;;;;;;;;;;;;;;13.02;82.83;99386.34;4272940;33;34031;-94
2023/05/28 04:15:38;;;;;;;;;;;;;;;13.63;80.60;99385.94;4289851;33;34919;-94
2023/05/28 04:18:08;;;;;;;;;;;;;;;13.41;81.03;99386.44;4293432;33;35154;-95
2023/05/28 04:20:47;;;;;;;;;;;;;;;13.87;80.55;99394.13;4294697;33;34428;-95
2023/05/28 04:23:24;;;;;;;;;;;;;;;14.34;79.20;99392.13;4290765;27;33081;-96
2023/05/28 04:26:00;;;;;;;;;;;;;;;14.75;75.47;99395.44;4282683;33;34191;-95
2023/05/28 04:28:33;;;;;;;;;;;;;;;15.18;76.15;99394.25;4300537;27;35281;-94
2023/05/28 04:31:01;;;;;;;;;;;;;;;15.38;74.50;99391.03;4277310;33;35688;-95
2023/05/28 04:34:03;;;;;;;;;;;;;;;15.68;71.23;99389.25;4277336;33;33150;-95
2023/05/28 04:36:36;;;;;;;;;;;;;;;16.01;66.51;99391.78;4300231;27;34690;-95
2023/05/28 04:39:06;;;;;;;;;;;;;;;16.28;62.26;99390.00;4276484;33;36102;-94
2023/05/28 04:41:43;;;;;;;;;;;;;;;16.39;63.62;99392.25;4296581;33;34998;-94
2023/05/28 04:44:18;;;;;;;;;;;;;;;16.72;59.84;99385.91;4294501;27;33405;-95
2023/05/28 04:47:06;;;;;;;;;;;;;;;16.86;64.78;99387.16;4276945;33;33158;-95
2023/05/28 04:49:36;;;;;;;;;;;;;;;17.19;61.52;99389.50;4295931;28;34036;-95
2023/05/28 04:52:35;;;;;;;;;;;;;;;17.47;58.97;99388.47;4288592;33;35523;-95
2023/05/28 04:55:40;;;;;;;;;;;;;;;17.52;59.99;99396.16;4297968;33;33366;-95
2023/05/28 04:58:15;;;;;;;;;;;;;;;17.78;58.96;99392.50;4299832;33;34605;-94
2023/05/28 05:00:44;;;;;;;;;;;;;;;17.94;57.29;99395.44;4298092;27;35350;-95
2023/05/28 05:03:15;;;;;;;;;;;;;;;17.90;56.77;99397.31;4284076;28;34110;-95
2023/05/28 05:05:57;;;;;;;;;;;;;;;18.32;58.74;99398.28;4283349;33;33546;-95
2023/05/28 05:08:26;;;;;;;;;;;;;;;18.44;58.21;99396.91;4290608;33;34926;-94
2023/05/28 05:11:06;;;;;;;;;;;;;;;18.43;57.14;99401.31;4311101;27;34507;-95
2023/05/28 05:13:52;;;;;;;;;;;;;;;18.77;53.89;99400.72;4298601;33;34691;-95
2023/05/28 05:16:21;;;;;;;;;;;;;;;18.73;54.92;99401.78;4289921;33;31881;-95
2023/05/28 05:19:00;;;;;;;;;;;;;;;19.42;54.28;99408.44;4305238;33;34546;-95
2023/05/28 05:21:33;;;;;;;;;;;;;;;19.51;55.15;99402.72;4289767;33;34009;-95
2023/05/28 05:24:15;;;;;;;;;;;;;;;19.55;53.01;99402.59;4291460;33;33594;-96
2023/05/28 05:26:43;;;;;;;;;;;;;;;19.73;53.37;99403.50;4301535;33;33336;-94
2023/05/28 05:29:12;;;;;;;;;;;;;;;19.64;54.97;99403.03;4291412;33;34532;-94
2023/05/28 05:31:39;;;;;;;;;;;;;;;19.94;54.55;99405.19;4302106;33;34240;-93
2023/05/28 05:34:10;;;;;;;;;;;;;;;20.15;54.01;99400.59;4282515;33;35413;-95
2023/05/28 05:36:42;;;;;;;;;;;;;;;20.21;52.13;99402.97;4287720;33;32985;-95
2023/05/28 05:39:14;;;;;;;;;;;;;;;20.30;51.61;99404.28;4299534;33;34073;-96
2023/05/28 05:41:45;;;;;;;;;;;;;;;20.49;52.20;99404.22;4292194;33;35413;-94
2023/05/28 05:44:15;;;;;;;;;;;;;;;20.33;49.73;99400.63;4305146;33;34604;-93
2023/05/28 05:46:47;;;;;;;;;;;;;;;20.56;49.65;99402.97;4280718;33;33582;-94
2023/05/28 05:49:15;;;;;;;;;;;;;;;20.78;50.24;99396.63;4302482;33;33960;-93
2023/05/28 05:51:46;;;;;;;;;;;;;;;20.73;48.56;99396.84;4289574;33;35321;-94
2023/05/28 05:54:15;;;;;;;;;;;;;;;21.20;48.12;99390.84;4291443;33;34947;-94
2023/05/28 05:56:49;;;;;;;;;;;;;;;21.68;48.29;99390.06;4294224;33;33352;-94
2023/05/28 05:59:22;;;;;;;;;;;;;;;21.67;49.86;99397.16;4303052;33;35254;-93
2023/05/28 06:01:51;;;;;;;;;;;;;;;21.66;48.63;99395.44;4293122;33;35036;-96
2023/05/28 06:04:22;;;;;;;;;;;;;;;21.84;47.08;99398.00;4302784;33;34692;-95
2023/05/28 06:06:56;;;;;;;;;;;;;;;21.74;46.89;99402.97;4292776;33;31743;-95
2023/05/28 06:09:28;;;;;;;;;;;;;;;21.95;46.06;99412.38;4305154;33;34166;-94
2023/05/28 06:11:56;;;;;;;;;;;;;;;22.03;45.79;99413.75;4297350;33;35182;-95
2023/05/28 06:14:29;;;;;;;;;;;;;;;22.38;46.43;99409.09;4288454;33;35266;-94
2023/05/28 06:16:57;;;;;;;;;;;;;;;22.73;45.14;99416.75;4280997;33;33401;-96
2023/05/28 06:19:36;;;;;;;;;;;;;;;21.86;48.04;99414.69;4289334;33;33637;-95
2023/05/28 06:22:10;;;;;;;;;;;;;;;22.05;47.43;99414.50;4302744;33;35145;-95
2023/05/28 06:24:52;;;;;;;;;;;;;;;22.52;47.44;99405.63;4306438;33;34705;-94
2023/05/28 06:27:24;;;;;;;;;;;;;;;23.05;44.39;99414.00;4304939;33;33511;-95
2023/05/28 06:29:54;;;;;;;;;;;;;;;22.78;44.17;99411.16;4294165;33;33303;-96
2023/05/28 06:32:27;;;;;;;;;;;;;;;23.22;45.46;99415.59;4280684;33;35543;-96
2023/05/28 06:34:55;;;;;;;;;;;;;;;22.95;45.53;99412.81;4304081;33;34471;-95
2023/05/28 06:37:26;;;;;;;;;;;;;;;24.04;42.77;99424.63;4293440;33;33450;-94
2023/05/28 06:39:54;;;;;;;;;;;;;;;23.58;41.95;99420.41;4306809;33;34658;-95
2023/05/28 06:42:22;;;;;;;;;;;;;;;23.53;42.85;99419.00;4292761;33;34847;-95
2023/05/28 06:44:56;;;;;;;;;;;;;;;23.94;42.42;99416.38;4307401;33;35346;-94
2023/05/28 06:47:24;;;;;;;;;;;;;;;23.91;40.68;99424.53;4295801;33;33993;-93
2023/05/28 06:49:53;;;;;;;;;;;;;;;23.26;44.09;99420.63;4307989;33;34109;-96
2023/05/28 06:52:35;;;;;;;;;;;;;;;24.06;43.24;99419.19;4294653;33;34441;-94
2023/05/28 06:55:05;;;;;;;;;;;;;;;23.98;41.95;99420.56;4279670;33;33399;-93
2023/05/28 06:57:36;;;;;;;;;;;;;;;24.72;41.54;99426.31;4267527;33;33034;-96
2023/05/28 07:00:16;;;;;;;;;;;;;;;24.35;40.78;99419.91;4308554;33;33876;-94
2023/05/28 07:02:46;;;;;;;;;;;;;;;23.77;42.00;99419.22;4320846;33;36133;-95
2023/05/28 07:05:18;;;;;;;;;;;;;;;24.82;38.91;99417.72;4316445;27;34575;-95
2023/05/28 07:07:47;;;;;;;;;;;;;;;25.83;38.14;99412.38;4303248;27;33810;-94
2023/05/28 07:10:15;;;;;;;;;;;;;;;26.04;37.49;99415.31;4286519;33;34222;-93
2023/05/28 07:12:44;;;;;;;;;;;;;;;26.69;32.62;99418.53;4309442;33;35758;-94
2023/05/28 07:15:13;;;;;;;;;;;;;;;26.61;34.13;99414.63;4308103;27;34580;-94
2023/05/28 07:17:41;;;;;;;;;;;;;;;27.27;30.91;99411.34;4294083;33;32652;-94
2023/05/28 07:20:12;;;;;;;;;;;;;;;25.87;32.03;99416.53;4294788;33;32806;-93
2023/05/28 07:22:52;;;;;;;;;;;;;;;26.26;34.16;99420.78;4307551;33;36451;-92
2023/05/28 07:25:23;;;;;;;;;;;;;;;26.82;32.43;99421.94;4296225;33;35578;-94
2023/05/28 07:27:52;;;;;;;;;;;;;;;26.42;32.51;99419.59;4295883;33;31720;-94
2023/05/28 07:30:21;;;;;;;;;;;;;;;26.04;37.87;99426.00;4301445;27;34748;-93
2023/05/28 07:32:51;;;;;;;;;;;;;;;26.41;34.64;99418.75;4305182;33;35441;-94
2023/05/28 07:35:23;;;;;;;;;;;;;;;26.48;33.01;99424.50;4279184;33;34599;-95
2023/05/28 07:37:52;;;;;;;;;;;;;;;26.10;31.83;99420.19;4280760;33;33154;-94
2023/05/28 07:40:22;;;;;;;;;;;;;;;26.20;34.37;99415.88;4279872;33;33780;-94
2023/05/28 07:42:51;;;;;;;;;;;;;;;25.67;35.98;99412.66;4277692;33;36100;-94
2023/05/28 07:45:20;;;;;;;;;;;;;;;26.70;34.24;99406.87;4292014;33;34688;-94
2023/05/28 07:47:51;;;;;;;;;;;;;;;26.97;35.42;99403.91;4293531;33;34030;-94
2023/05/28 07:50:22;;;;;;;;;;;;;;;27.96;31.36;99405.81;4280458;33;34037;-93
2023/05/28 07:52:51;;;;;;;;;;;;;;;28.82;30.01;99415.66;4293051;33;35345;-93
2023/05/28 07:55:21;;;;;;;;;;;;;;;28.84;28.12;99409.22;4282408;33;34683;-94
2023/05/28 07:57:49;;;;;;;;;;;;;;;26.62;36.02;99404.78;4280954;33;34230;-94
2023/05/28 08:00:19;;;;;;;;;;;;;;;27.66;31.32;99401.09;4279967;33;34962;-93
2023/05/28 08:03:04;;;;;;;;;;;;;;;27.65;32.78;99404.75;4283957;33;35244;-92
2023/05/28 08:05:33;;;;;;;;;;;;;;;26.62;35.78;99402.12;4278883;33;34719;-94
2023/05/28 08:08:03;;;;;;;;;;;;;;;26.47;35.35;99399.63;4281009;33;33381;-93
2023/05/28 08:10:31;;;;;;;;;;;;;;;27.05;31.98;99402.31;4295556;33;32730;-93
2023/05/28 08:13:00;;;;;;;;;;;;;;;27.08;32.23;99400.38;4295715;33;35667;-94
2023/05/28 08:15:31;;;;;;;;;;;;;;;27.31;34.70;99402.09;4310398;33;35360;-94
2023/05/28 08:18:04;;;;;;;;;;;;;;;28.03;30.15;99408.84;4310690;33;33104;-93
2023/05/28 08:20:32;;;;;;;;;;;;;;;28.25;30.35;99401.69;4308960;33;33796;-94
2023/05/28 08:23:02;;;;;;;;;;;;;;;28.95;29.51;99399.41;4310851;33;36130;-95
2023/05/28 08:25:41;;;;;;;;;;;;;;;29.16;29.31;99399.41;4296653;33;33221;-94
2023/05/28 08:28:09;;;;;;;;;;;;;;;28.01;32.04;99396.53;4310087;33;33409;-93
2023/05/28 08:30:40;;;;;;;;;;;;;;;27.47;34.84;99395.53;4299028;33;32805;-93
2023/05/28 08:33:13;;;;;;;;;;;;;;;27.86;34.35;99391.44;4297598;33;35176;-94
2023/05/28 08:35:45;;;;;;;;;;;;;;;27.08;36.39;99395.88;4308672;27;34277;-94
2023/05/28 08:38:16;;;;;;;;;;;;;;;27.04;37.66;99392.59;4285235;33;33306;-94
2023/05/28 08:40:50;;;;;;;;;;;;;;;27.10;36.90;99385.91;4325073;33;32868;-93
2023/05/28 08:43:27;;;;;;;;;;;;;;;26.41;37.07;99391.22;4324857;33;35229;-92
2023/05/28 08:45:58;;;;;;;;;;;;;;;26.63;39.25;99380.62;4327632;27;34983;-94
2023/05/28 08:48:28;;;;;;;;;;;;;;;26.90;37.14;99387.47;4300011;33;32805;-93
2023/05/28 08:50:58;;;;;;;;;;;;;;;26.14;39.08;99389.66;4298961;33;35002;-94
2023/05/28 08:53:30;;;;;;;;;;;;;;;26.76;36.11;99380.53;4310066;33;35160;-93
2023/05/28 08:56:05;;;;;;;;;;;;;;;26.95;38.09;99379.09;4308059;33;35034;-93
2023/05/28 08:58:33;;;;;;;;;;;;;;;27.94;33.35;99386.34;4296957;33;34003;-94
2023/05/28 09:01:03;;;;;;;;;;;;;;;28.87;29.76;99382.16;4310230;33;33363;-94
2023/05/28 09:03:35;;;;;;;;;;;;;;;28.20;35.28;99377.13;4310336;33;34772;-93
2023/05/28 09:06:06;;;;;;;;;;;;;;;27.62;33.60;99365.72;4310638;33;35215;-93
2023/05/28 09:08:50;;;;;;;;;;;;;;;27.33;34.37;99373.41;4312615;27;32939;-92
2023/05/28 09:12:28;;;;;;;;;;;;;;;28.57;34.74;99366.00;4305046;27;35435;-92
2023/05/28 09:14:59;;;;;;;;;;;;;;;28.08;36.94;99369.16;4297678;33;35926;-92
2023/05/28 09:17:41;;;;;;;;;;;;;;;29.58;29.68;99362.56;4295727;33;34739;-91
2023/05/28 09:20:41;;;;;;;;;;;;;;;29.85;28.83;99350.34;4298769;33;33518;-92
2023/05/28 09:23:28;;;;;;;;;;;;;;;27.58;35.96;99360.75;4303534;27;34715;-92
2023/05/28 09:26:00;;;;;;;;;;;;;;;28.09;36.20;99357.44;4294567;33;35212;-93
2023/05/28 09:28:31;;;;;;;;;;;;;;;27.87;34.20;99360.19;4280452;33;35353;-92
2023/05/28 09:31:12;;;;;;;;;;;;;;;28.77;32.87;99359.81;4306296;33;33453;-93
2023/05/28 09:33:48;;;;;;;;;;;;;;;28.54;34.60;99359.94;4296912;33;35303;-94
2023/05/28 09:36:21;;;;;;;;;;;;;;;28.39;36.35;99366.56;4309459;33;35626;-93
2023/05/28 09:38:53;;;;;;;;;;;;;;;28.46;30.75;99357.03;4309110;33;36819;-94
2023/05/28 09:41:33;;;;;;;;;;;;;;;28.97;31.96;99351.84;4307934;33;33573;-93
2023/05/28 09:44:10;;;;;;;;;;;;;;;28.28;32.42;99353.25;4312668;33;34441;-92
2023/05/28 09:46:58;;;;;;;;;;;;;;;28.60;31.16;99347.84;4313764;33;35302;-93
2023/05/28 09:49:51;;;;;;;;;;;;;;;29.28;32.32;99348.19;4319998;27;34624;-92
2023/05/28 09:52:20;;;;;;;;;;;;;;;29.67;32.10;99345.63;4289025;33;34239;-93
2023/05/28 09:54:58;;;;;;;;;;;;;;;29.55;30.55;99349.41;4276840;27;966602;-94
2023/05/28 09:57:29;;;;;;;;;;;;;;;29.33;29.23;99344.25;4285283;33;34976;-93
2023/05/28 10:00:22;;;;;;;;;;;;;;;28.24;31.79;99341.09;4288631;33;34383;-93
2023/05/28 10:02:55;;;;;;;;;;;;;;;28.25;32.46;99342.78;4296266;33;33436;-93
2023/05/28 10:05:34;;;;;;;;;;;;;;;28.15;32.14;99346.25;4296278;33;34288;-92
2023/05/28 10:08:24;;;;;;;;;;;;;;;28.62;29.33;99334.31;4305485;27;35305;-93
2023/05/28 10:10:59;;;;;;;;;;;;;;;28.64;31.09;99337.72;4294551;33;34298;-93
2023/05/28 10:13:31;;;;;;;;;;;;;;;28.12;33.44;99335.78;4269812;33;34488;-93
2023/05/28 10:16:00;;;;;;;;;;;;;;;28.93;29.87;99335.19;4294425;33;34300;-92
2023/05/28 10:19:02;;;;;;;;;;;;;;;28.33;32.21;99335.81;4299820;33;34962;-92
2023/05/28 10:21:46;;;;;;;;;;;;;;;28.47;34.53;99333.78;4297820;33;35060;-93
2023/05/28 10:24:16;;;;;;;;;;;;;;;28.07;35.32;99332.63;4282078;33;32332;-93
2023/05/28 10:26:45;;;;;;;;;;;;;;;27.99;32.83;99324.41;4281117;33;34457;-93
2023/05/28 10:29:13;;;;;;;;;;;;;;;27.95;33.04;99330.97;4283350;33;35390;-92
2023/05/28 10:31:43;;;;;;;;;;;;;;;27.66;31.75;99326.19;4294443;33;33895;-93
2023/05/28 10:34:17;;;;;;;;;;;;;;;28.40;32.99;99325.41;4282841;33;34299;-92
2023/05/28 10:36:50;;;;;;;;;;;;;;;28.77;29.90;99316.06;4294000;33;34166;-91
2023/05/28 10:39:20;;;;;;;;;;;;;;;29.52;27.68;99316.63;4301385;27;34866;-94
2023/05/28 10:41:51;;;;;;;;;;;;;;;29.68;29.09;99309.75;4284952;33;35221;-93
2023/05/28 10:45:07;;;;;;;;;;;;;;;29.13;30.34;99312.81;4297390;33;33229;-94
2023/05/28 10:47:50;;;;;;;;;;;;;;;28.62;33.46;99308.37;4297215;33;33707;-93
2023/05/28 10:50:41;;;;;;;;;;;;;;;29.32;30.46;99308.53;4297239;33;35550;-93
2023/05/28 10:53:24;;;;;;;;;;;;;;;28.34;33.90;99316.09;4295793;33;34987;-93
2023/05/28 10:55:55;;;;;;;;;;;;;;;28.53;32.08;99309.97;4292712;33;34112;-93
2023/05/28 10:58:36;;;;;;;;;;;;;;;28.54;32.48;99311.72;4293936;33;34558;-93
2023/05/28 11:01:05;;;;;;;;;;;;;;;28.40;31.83;99305.84;4298344;33;35200;-93
2023/05/28 11:03:45;;;;;;;;;;;;;;;29.81;29.28;99295.25;4261312;33;33785;-94
2023/05/28 11:06:15;;;;;;;;;;;;;;;29.47;30.46;99299.13;4284244;33;34081;-94
2023/05/28 11:08:51;;;;;;;;;;;;;;;30.41;27.26;99289.69;4286204;33;34897;-93
2023/05/28 11:11:19;;;;;;;;;;;;;;;30.26;28.97;99289.25;4293292;27;35112;-93
2023/05/28 11:14:07;;;;;;;;;;;;;;;29.55;31.47;99290.38;4296221;33;35075;-91
2023/05/28 11:16:40;;;;;;;;;;;;;;;30.76;26.04;99278.25;4295780;33;33563;-92
2023/05/28 11:19:18;;;;;;;;;;;;;;;29.25;29.32;99288.62;4293158;33;33910;-91
2023/05/28 11:21:52;;;;;;;;;;;;;;;29.65;28.60;99282.34;4308602;27;35159;-92
2023/05/28 11:24:25;;;;;;;;;;;;;;;29.63;31.15;99277.13;4297656;33;34797;-92
2023/05/28 11:26:57;;;;;;;;;;;;;;;28.03;30.18;99275.00;4306156;27;33413;-92
2023/05/28 11:29:25;;;;;;;;;;;;;;;28.81;31.25;99270.09;4308410;33;33975;-93
2023/05/28 11:31:56;;;;;;;;;;;;;;;29.21;35.06;99266.59;4295095;33;35617;-92
2023/05/28 11:34:25;;;;;;;;;;;;;;;28.50;33.17;99266.53;4282839;33;35461;-92
2023/05/28 11:36:55;;;;;;;;;;;;;;;29.13;31.22;99259.19;4325604;33;33398;-91
2023/05/28 11:39:23;;;;;;;;;;;;;;;29.58;29.73;99263.25;4324879;33;34067;-92
2023/05/28 11:41:52;;;;;;;;;;;;;;;30.06;26.79;99242.78;4320488;27;35182;-92
2023/05/28 11:44:21;;;;;;;;;;;;;;;28.86;31.80;99259.00;4287498;33;35196;-93
2023/05/28 11:46:54;;;;;;;;;;;;;;;29.02;31.08;99253.13;4311282;33;33423;-91
2023/05/28 11:49:30;;;;;;;;;;;;;;;29.34;30.80;99252.91;4312162;33;33913;-93
2023/05/28 11:52:01;;;;;;;;;;;;;;;28.96;35.24;99242.91;4299301;33;35123;-92
2023/05/28 11:54:47;;;;;;;;;;;;;;;29.26;32.75;99248.25;4310931;33;35349;-93
2023/05/28 11:57:23;;;;;;;;;;;;;;;28.15;34.44;99247.19;4294865;33;33406;-94
2023/05/28 12:00:05;;;;;;;;;;;;;;;28.85;31.35;99241.19;4298406;33;34912;-92
2023/05/28 12:02:55;;;;;;;;;;;;;;;29.91;28.56;99239.69;4307199;27;35172;-94
2023/05/28 12:05:27;;;;;;;;;;;;;;;29.42;30.08;99236.13;4290783;33;34772;-93
2023/05/28 12:08:20;;;;;;;;;;;;;;;29.09;32.63;99238.19;4284709;33;33723;-94
2023/05/28 12:11:15;;;;;;;;;;;;;;;29.38;30.07;99237.41;4238759;33;836373;-95
2023/05/28 12:13:49;;;;;;;;;;;;;;;28.22;33.86;99230.56;4268387;33;35991;-93
2023/05/28 12:16:20;;;;;;;;;;;;;;;28.41;33.35;99229.84;4269030;33;34426;-95
2023/05/28 12:18:51;;;;;;;;;;;;;;;28.33;31.90;99228.69;4254076;33;33509;-93
2023/05/28 12:21:20;;;;;;;;;;;;;;;28.09;33.75;99226.28;4264284;33;34138;-93
2023/05/28 12:23:51;;;;;;;;;;;;;;;29.90;28.40;99229.94;4279550;27;35107;-93
2023/05/28 12:26:19;;;;;;;;;;;;;;;29.51;30.27;99229.94;4291469;28;34935;-94
2023/05/28 12:28:55;;;;;;;;;;;;;;;29.50;29.93;99234.44;4297403;33;34315;-93
2023/05/28 12:31:31;;;;;;;;;;;;;;;29.12;33.82;99224.50;4307209;33;35074;-93
2023/05/28 12:34:02;;;;;;;;;;;;;;;27.83;33.45;99230.28;4311898;27;35436;-93
2023/05/28 12:36:42;;;;;;;;;;;;;;;28.85;31.18;99225.13;4298704;27;34493;-93
2023/05/28 12:39:13;;;;;;;;;;;;;;;29.25;30.76;99225.09;4297109;33;33437;-94
2023/05/28 12:41:42;;;;;;;;;;;;;;;29.56;33.71;99225.00;4309092;33;34342;-94
2023/05/28 12:44:16;;;;;;;;;;;;;;;28.90;34.76;99229.06;4303324;27;36051;-94
2023/05/28 12:46:44;;;;;;;;;;;;;;;28.25;34.15;99225.81;4291983;27;35457;-93
2023/05/28 12:49:12;;;;;;;;;;;;;;;28.64;36.58;99215.31;4285444;33;34121;-95
2023/05/28 12:51:42;;;;;;;;;;;;;;;28.73;34.65;99214.50;4309418;33;34141;-92
2023/05/28 12:54:17;;;;;;;;;;;;;;;29.57;30.48;99213.25;4314599;28;36487;31
2023/05/28 12:56:48;;;;;;;;;;;;;;;30.36;27.57;99214.06;4263278;33;34503;-93
2023/05/28 12:59:22;;;;;;;;;;;;;;;30.28;27.03;99208.53;4265667;33;33386;-93
2023/05/28 13:01:51;;;;;;;;;;;;;;;30.13;28.14;99209.00;4279329;33;34173;-94
2023/05/28 13:04:33;;;;;;;;;;;;;;;30.59;27.15;99212.69;4280325;33;35729;-92
2023/05/28 13:07:17;;;;;;;;;;;;;;;28.82;32.14;99209.31;4291289;27;34633;-93
2023/05/28 13:09:47;;;;;;;;;;;;;;;28.04;35.26;99204.41;4283705;33;33617;-92
2023/05/28 13:12:16;;;;;;;;;;;;;;;28.14;33.30;99208.00;4295717;33;33931;-92
2023/05/28 13:14:45;;;;;;;;;;;;;;;28.27;32.35;99201.56;4282850;33;34325;-92
2023/05/28 13:17:40;;;;;;;;;;;;;;;28.45;33.32;99202.66;4300411;33;36048;-92
2023/05/28 13:20:13;;;;;;;;;;;;;;;28.93;29.99;99201.16;4308818;33;33169;-92
2023/05/28 13:22:42;;;;;;;;;;;;;;;28.92;34.01;99202.13;4257922;33;32755;-93
2023/05/28 13:25:34;;;;;;;;;;;;;;;28.84;30.72;99200.16;4283894;33;35609;-91
2023/05/28 13:28:52;;;;;;;;;;;;;;;28.14;32.37;99194.59;4290652;33;34643;-92
2023/05/28 13:31:28;;;;;;;;;;;;;;;27.86;35.41;99200.59;4304294;33;34694;-92
2023/05/28 13:34:08;;;;;;;;;;;;;;;27.87;34.52;99199.63;4318246;27;34445;-92